KPTD

Potsdam Municipal / Damon Field / Airport

Potsdam, New York, USA
METAR KPTD 162235Z AUTO 00000KT 10SM BKN046 BKN070 OVC090 M00/M01 A2999 RMK AO2
Observed Flight Rules
Dec-16 @ 22:35 UTC (29 minutes ago) Visual Flight Rules
Visibility Clouds
10 miles
  • Broken at 4,600' AGL
  • Broken at 7,000' AGL
  • Overcast at 9,000' AGL
Temperatures Readings
Current 0°C / 32°F
Dewpoint -1°C / 30°F
Humidity 93%
Altimeter 29.99" Hg
Pressure 1016 hPa
Elevation 144
METAR KPTD 162235Z AUTO 00000KT 10SM BKN046 BKN070 OVC090 M00/M01 A2999 RMK AO2
Observed Flight Rules
Dec-16 @ 22:35 UTC
(29 minutes ago)
VFR
Clouds
  • Broken at 4,600' AGL
  • Broken at 7,000' AGL
  • Overcast at 9,000' AGL
Temperature Dewpoint
0°C / 32°F -1°C / 30°F
Humidity Altimeter Pressure
93% 29.99" Hg 1016 hPa